This is the latest recevied weather packets stored in our database for station/object KS5S. If no packets are shown the sender has not sent any weather packets the latest 1 day(s).
| Time | Temp. | Humidity | Pressure | Rain* | Wind** | Luminosity | Snow |
|---|---|---|---|---|---|---|---|
| 1778031544 | 26.11° C | 66% | 1003.5 hPa | 0 mm | 2.24 m/s, 19° | 0 W/m² | - |
| 1778031242 | 26.11° C | 67% | 1003.8 hPa | 0 mm | 2.24 m/s, 15° | 0 W/m² | - |
| 1778030938 | 26.11° C | 66% | 1003.7 hPa | 0 mm | 0.89 m/s, 354° | 0 W/m² | - |
| 1778030635 | 26.11° C | 67% | 1003.3 hPa | 0 mm | 0.89 m/s, 3° | 0 W/m² | - |
| 1778030332 | 26.11° C | 65% | 1003.2 hPa | 0 mm | 0.89 m/s, 356° | 0 W/m² | - |
| 1778030029 | 26.67° C | 65% | 1003.3 hPa | 0 mm | 1.34 m/s, 332° | 0 W/m² | - |
| 1778029726 | 26.67° C | 65% | 1003.7 hPa | 0 mm | 0.45 m/s, 332° | 1 W/m² | - |
| 1778029424 | 26.67° C | 65% | 1003.4 hPa | 0 mm | 0.45 m/s, 323° | 2 W/m² | - |
| 1778029121 | 26.67° C | 66% | 1003.2 hPa | 0 mm | 0.89 m/s, 294° | 5 W/m² | - |
| 1778028818 | 26.67° C | 66% | 1003 hPa | 0 mm | 1.79 m/s, 8° | 6 W/m² | - |
| 1778028513 | 26.67° C | 66% | 1002.7 hPa | 0 mm | 2.24 m/s, 7° | 13 W/m² | - |
| 1778028211 | 26.67° C | 66% | 1002.9 hPa | 0 mm | 0.89 m/s, 355° | 17 W/m² | - |
| 1778027907 | 26.67° C | 66% | 1002.9 hPa | 0 mm | 1.34 m/s, 322° | 27 W/m² | - |
| 1778027604 | 26.67° C | 65% | 1002.9 hPa | 0 mm | 1.79 m/s, 346° | 34 W/m² | - |
| 1778027300 | 27.22° C | 65% | 1002.9 hPa | 0 mm | 1.34 m/s, 330° | 31 W/m² | - |
| 1778026997 | 28.33° C | 65% | 1002.8 hPa | 0 mm | 1.34 m/s, 299° | 38 W/m² | - |
| 1778026692 | 28.89° C | 64% | 1003 hPa | 0 mm | 0.89 m/s, 309° | 42 W/m² | - |
| 1778026390 | 29.44° C | 71% | 1002.7 hPa | 0 mm | 2.24 m/s, 296° | 78 W/m² | - |
| 1778026086 | 29.44° C | 76% | 1002.7 hPa | 0 mm | 1.34 m/s, 311° | 67 W/m² | - |
| 1778025784 | 29.44° C | 75% | 1002.6 hPa | 0 mm | 0.89 m/s, 173° | 64 W/m² | - |
| 1778025481 | 29.44° C | 75% | 1002.3 hPa | 0 mm | 2.68 m/s, 156° | 63 W/m² | - |
| 1778025179 | 30° C | 74% | 1002.2 hPa | 0 mm | 1.79 m/s, 194° | 106 W/m² | - |
| 1778024875 | 30° C | 74% | 1002.4 hPa | 0 mm | 0.45 m/s, 192° | 174 W/m² | - |
| 1778024573 | 30° C | 74% | 1002.2 hPa | 0 mm | 0.89 m/s, 163° | 232 W/m² | - |
| 1778024269 | 30° C | 73% | 1002.3 hPa | 0 mm | 1.79 m/s, 128° | 141 W/m² | - |
* Rain latest hour (hover to see other rain measurements)
** Current wind speed in m/s (hover to see current wind gust speed)